Time;durP1;ratioP1;P1;durP2;ratioP2;P2;SDS_P1;SDS_P2;PMS_P1;PMS_P2;Temp;Humidity;BMP_temperature;BMP_pressure;BME280_temperature;BME280_humidity;BME280_pressure;Samples;Min_cycle;Max_cycle;Signal;HPM_P1;HPM_P2
2021/06/25 00:00:38;;;;;;;2.78;2.10;;;;;;;;;;5031527;28;20041;-41
2021/06/25 00:03:04;;;;;;;2.53;1.92;;;;;;;;;;5033147;28;20053;-43
2021/06/25 00:05:31;;;;;;;4.05;2.40;;;;;;;;;;5035216;28;20041;-41
2021/06/25 00:07:58;;;;;;;2.67;2.00;;;;;;;;;;5033282;28;20049;-44
2021/06/25 00:10:25;;;;;;;2.63;1.80;;;;;;;;;;5018512;28;20115;-41
2021/06/25 00:12:52;;;;;;;2.50;2.00;;;;;;;;;;5031197;28;22214;-43
2021/06/25 00:15:19;;;;;;;2.67;2.00;;;;;;;;;;5034355;28;20053;-44
2021/06/25 00:17:46;;;;;;;3.20;1.83;;;;;;;;;;5029947;28;20111;-41
2021/06/25 00:20:14;;;;;;;3.08;2.00;;;;;;;;;;5032639;28;20045;-40
2021/06/25 00:22:42;;;;;;;2.10;1.77;;;;;;;;;;5027408;28;20045;-40
2021/06/25 00:25:09;;;;;;;2.28;1.80;;;;;;;;;;5033553;28;20399;-40
2021/06/25 00:27:35;;;;;;;3.10;1.83;;;;;;;;;;5033415;28;20046;-41
2021/06/25 00:30:03;;;;;;;2.40;1.83;;;;;;;;;;5041135;28;20076;-40
2021/06/25 00:32:30;;;;;;;3.17;1.80;;;;;;;;;;5033882;28;20049;-41
2021/06/25 00:34:57;;;;;;;2.58;1.80;;;;;;;;;;5033037;28;20574;-43
2021/06/25 00:37:27;;;;;;;2.35;1.75;;;;;;;;;;5033949;28;20041;-40
2021/06/25 00:39:54;;;;;;;3.17;1.35;;;;;;;;;;5026339;28;20431;-40
2021/06/25 00:42:20;;;;;;;4.20;1.85;;;;;;;;;;5017339;28;20049;-40
2021/06/25 00:44:47;;;;;;;3.10;1.70;;;;;;;;;;5032855;28;20148;-42
2021/06/25 00:47:14;;;;;;;2.63;1.83;;;;;;;;;;5034539;28;20431;-43
2021/06/25 00:49:41;;;;;;;4.00;1.90;;;;;;;;;;5029832;28;20049;-41
2021/06/25 00:52:08;;;;;;;3.40;1.58;;;;;;;;;;5027018;28;20080;-42
2021/06/25 00:54:35;;;;;;;3.35;1.83;;;;;;;;;;5034089;28;20037;-40
2021/06/25 00:57:01;;;;;;;3.28;1.88;;;;;;;;;;5032132;28;20153;-42
2021/06/25 00:59:28;;;;;;;3.40;1.73;;;;;;;;;;5033889;28;20045;-42
2021/06/25 01:01:55;;;;;;;3.88;2.05;;;;;;;;;;5029841;28;20474;-41
2021/06/25 01:04:22;;;;;;;2.33;1.65;;;;;;;;;;5033327;28;20052;-42
2021/06/25 01:06:49;;;;;;;2.13;1.50;;;;;;;;;;5033886;28;20111;-44
2021/06/25 01:09:19;;;;;;;1.60;1.27;;;;;;;;;;5026128;28;20057;-40
2021/06/25 01:11:46;;;;;;;2.05;1.80;;;;;;;;;;5014031;28;20101;-40
2021/06/25 01:14:13;;;;;;;2.63;1.67;;;;;;;;;;5024351;28;20120;-41
2021/06/25 01:16:40;;;;;;;1.92;1.40;;;;;;;;;;5034706;28;20111;-40
2021/06/25 01:19:14;;;;;;;1.55;1.40;;;;;;;;;;5029279;28;20145;-40
2021/06/25 01:21:41;;;;;;;2.10;1.60;;;;;;;;;;5028818;28;20049;-41
2021/06/25 01:24:08;;;;;;;1.85;1.60;;;;;;;;;;5032025;28;20411;-41
2021/06/25 01:26:35;;;;;;;2.95;1.52;;;;;;;;;;5032893;28;20466;-43
2021/06/25 01:29:02;;;;;;;2.03;1.52;;;;;;;;;;5029496;28;20099;-41
2021/06/25 01:31:28;;;;;;;1.98;1.13;;;;;;;;;;5030919;28;20161;-42
2021/06/25 01:33:55;;;;;;;1.85;1.40;;;;;;;;;;5031964;28;20077;-40
2021/06/25 01:36:22;;;;;;;1.45;1.30;;;;;;;;;;5033050;28;20476;-40
2021/06/25 01:38:49;;;;;;;1.45;1.20;;;;;;;;;;5019174;28;20403;-40
2021/06/25 01:41:16;;;;;;;1.80;1.13;;;;;;;;;;5020383;28;20060;-41
2021/06/25 01:43:44;;;;;;;1.20;1.05;;;;;;;;;;5032336;28;20056;-41
2021/06/25 01:46:12;;;;;;;3.08;1.20;;;;;;;;;;5029299;28;20057;-42
2021/06/25 01:48:38;;;;;;;1.00;0.90;;;;;;;;;;5016118;28;20073;-43
2021/06/25 01:51:05;;;;;;;2.00;1.05;;;;;;;;;;5045619;28;20049;-46
2021/06/25 01:53:32;;;;;;;1.95;1.27;;;;;;;;;;5022176;28;20136;-42
2021/06/25 01:56:01;;;;;;;1.17;1.05;;;;;;;;;;5030848;28;20153;-45
2021/06/25 01:58:29;;;;;;;1.30;1.08;;;;;;;;;;5031798;28;20056;-41
2021/06/25 02:00:56;;;;;;;1.50;1.20;;;;;;;;;;5029888;28;20045;-41
2021/06/25 02:03:23;;;;;;;1.65;1.27;;;;;;;;;;5032013;28;20077;-41
2021/06/25 02:05:50;;;;;;;1.33;1.10;;;;;;;;;;5028298;28;20160;-42
2021/06/25 02:08:16;;;;;;;2.10;1.45;;;;;;;;;;5030883;28;20106;-43
2021/06/25 02:10:43;;;;;;;1.27;1.00;;;;;;;;;;5029303;28;21945;-42
2021/06/25 02:13:10;;;;;;;2.17;1.20;;;;;;;;;;5031347;28;20512;-44
2021/06/25 02:15:37;;;;;;;1.40;1.17;;;;;;;;;;5029944;28;20053;-42
2021/06/25 02:18:04;;;;;;;1.30;1.10;;;;;;;;;;5015297;28;20082;-41
2021/06/25 02:20:30;;;;;;;1.42;1.13;;;;;;;;;;5030670;28;20120;-42
2021/06/25 02:22:58;;;;;;;2.95;1.20;;;;;;;;;;5018034;28;20057;-40
2021/06/25 02:25:25;;;;;;;4.15;1.15;;;;;;;;;;5027792;28;20056;-40
2021/06/25 02:27:52;;;;;;;1.38;1.10;;;;;;;;;;5031635;28;20069;-40
2021/06/25 02:30:19;;;;;;;1.65;1.13;;;;;;;;;;5026952;28;20104;-40
2021/06/25 02:32:46;;;;;;;1.85;1.10;;;;;;;;;;5030441;28;20046;-40
2021/06/25 02:35:14;;;;;;;0.98;0.90;;;;;;;;;;5029561;28;20477;-40
2021/06/25 02:37:41;;;;;;;1.10;1.00;;;;;;;;;;5031852;28;20132;-40
2021/06/25 02:40:08;;;;;;;1.33;1.00;;;;;;;;;;5028673;28;20049;-40
2021/06/25 02:42:35;;;;;;;1.17;1.00;;;;;;;;;;5031823;28;20122;-40
2021/06/25 02:45:03;;;;;;;1.70;1.10;;;;;;;;;;5032041;28;20603;-39
2021/06/25 02:47:30;;;;;;;0.95;0.93;;;;;;;;;;5039546;28;20077;-40
2021/06/25 02:49:57;;;;;;;1.77;1.15;;;;;;;;;;5024373;28;20083;-41
2021/06/25 02:52:23;;;;;;;1.70;0.98;;;;;;;;;;5022236;28;20133;-40
2021/06/25 02:54:50;;;;;;;2.53;1.20;;;;;;;;;;5028073;28;20096;-41
2021/06/25 02:57:17;;;;;;;0.90;0.90;;;;;;;;;;5031785;28;20136;-41
2021/06/25 02:59:45;;;;;;;1.30;1.15;;;;;;;;;;5029613;28;20057;-45
2021/06/25 03:02:14;;;;;;;1.13;1.00;;;;;;;;;;5029237;28;20423;-41
2021/06/25 03:04:41;;;;;;;1.50;1.13;;;;;;;;;;5029911;28;20050;-40
2021/06/25 03:07:07;;;;;;;1.33;0.98;;;;;;;;;;5029819;28;20793;-41
2021/06/25 03:09:35;;;;;;;1.25;1.02;;;;;;;;;;5031429;28;20044;-41
2021/06/25 03:12:02;;;;;;;1.30;1.00;;;;;;;;;;5029972;28;20515;-40
2021/06/25 03:14:29;;;;;;;1.17;1.00;;;;;;;;;;5024767;28;20096;-41
2021/06/25 03:16:55;;;;;;;1.17;1.02;;;;;;;;;;5027010;28;20109;-45
2021/06/25 03:19:22;;;;;;;1.50;1.13;;;;;;;;;;5033964;28;20057;-40
2021/06/25 03:21:49;;;;;;;1.00;0.88;;;;;;;;;;5028980;28;20038;-45
2021/06/25 03:24:16;;;;;;;1.48;1.20;;;;;;;;;;5032121;28;20049;-41
2021/06/25 03:26:43;;;;;;;3.72;1.10;;;;;;;;;;5034679;28;20045;-40
2021/06/25 03:29:10;;;;;;;2.20;1.23;;;;;;;;;;5035071;28;20368;-43
2021/06/25 03:31:36;;;;;;;3.20;1.27;;;;;;;;;;5032720;28;20077;-40
2021/06/25 03:34:03;;;;;;;1.58;1.15;;;;;;;;;;5034480;28;20049;-39
2021/06/25 03:36:30;;;;;;;1.20;1.10;;;;;;;;;;5033188;28;20137;-43
2021/06/25 03:38:57;;;;;;;2.35;1.08;;;;;;;;;;5049151;28;20139;-39
2021/06/25 03:41:24;;;;;;;0.90;0.90;;;;;;;;;;5029483;28;20057;-39
2021/06/25 03:43:51;;;;;;;1.48;1.08;;;;;;;;;;5033360;28;20037;-40
2021/06/25 03:46:19;;;;;;;1.20;1.10;;;;;;;;;;5032434;28;20045;-39
2021/06/25 03:48:46;;;;;;;1.90;1.30;;;;;;;;;;5032459;28;20065;-41
2021/06/25 03:51:13;;;;;;;1.80;1.20;;;;;;;;;;5033468;28;20050;-44
2021/06/25 03:53:40;;;;;;;1.30;1.10;;;;;;;;;;5044270;28;20049;-39
2021/06/25 03:56:12;;;;;;;2.20;1.10;;;;;;;;;;5034703;28;20123;-40
2021/06/25 03:58:44;;;;;;;2.80;1.20;;;;;;;;;;5033696;28;20073;-40
2021/06/25 04:01:14;;;;;;;1.40;0.95;;;;;;;;;;5029705;28;20216;-39
2021/06/25 04:03:41;;;;;;;2.20;1.20;;;;;;;;;;5033816;28;20045;-41
2021/06/25 04:06:08;;;;;;;1.10;0.90;;;;;;;;;;5033086;28;20050;-40
2021/06/25 04:08:35;;;;;;;2.80;1.40;;;;;;;;;;5033433;28;20084;-40
2021/06/25 04:11:03;;;;;;;2.20;1.20;;;;;;;;;;5018631;28;20055;-41
2021/06/25 04:13:30;;;;;;;2.72;1.38;;;;;;;;;;5033293;28;20473;-39
2021/06/25 04:15:57;;;;;;;2.03;1.33;;;;;;;;;;5030008;28;20569;-43
2021/06/25 04:18:25;;;;;;;1.70;1.40;;;;;;;;;;5019067;28;20077;-48
2021/06/25 04:20:53;;;;;;;2.22;1.23;;;;;;;;;;5033121;28;20522;-40
2021/06/25 04:23:20;;;;;;;3.05;1.30;;;;;;;;;;5022579;28;20060;-42
2021/06/25 04:25:47;;;;;;;2.05;1.40;;;;;;;;;;5031960;28;20121;-40
2021/06/25 04:28:14;;;;;;;3.47;1.60;;;;;;;;;;5033465;28;20046;-41
2021/06/25 04:30:42;;;;;;;2.53;1.50;;;;;;;;;;5027015;28;20045;-40
2021/06/25 04:33:11;;;;;;;1.95;1.35;;;;;;;;;;5033621;28;20128;-40
2021/06/25 04:35:39;;;;;;;2.67;1.50;;;;;;;;;;5031555;28;20080;-42
2021/06/25 04:38:05;;;;;;;1.73;1.38;;;;;;;;;;5026372;28;20124;-40
2021/06/25 04:40:33;;;;;;;2.97;1.95;;;;;;;;;;5030196;28;20130;-44
2021/06/25 04:43:00;;;;;;;1.80;1.50;;;;;;;;;;5032613;28;20084;-42
2021/06/25 04:45:27;;;;;;;2.03;1.58;;;;;;;;;;5028584;28;20045;-42
2021/06/25 04:47:54;;;;;;;4.30;1.58;;;;;;;;;;5033450;28;20072;-44
2021/06/25 04:50:21;;;;;;;2.22;1.80;;;;;;;;;;5032224;28;20053;-40
2021/06/25 04:52:48;;;;;;;2.17;1.65;;;;;;;;;;5020432;28;20571;-40
2021/06/25 04:55:14;;;;;;;2.97;1.83;;;;;;;;;;5021544;28;20049;-44
2021/06/25 04:57:48;;;;;;;3.58;1.65;;;;;;;;;;5032347;28;20395;-41
2021/06/25 05:00:15;;;;;;;3.60;1.70;;;;;;;;;;5027695;28;20126;-40
2021/06/25 05:02:42;;;;;;;3.47;1.50;;;;;;;;;;5021671;28;20120;-39
2021/06/25 05:05:09;;;;;;;2.45;1.55;;;;;;;;;;5022395;28;20053;-41
2021/06/25 05:07:36;;;;;;;2.45;1.80;;;;;;;;;;5032410;28;20057;-40
2021/06/25 05:10:03;;;;;;;2.90;1.88;;;;;;;;;;5016328;28;20456;-42
2021/06/25 05:12:30;;;;;;;4.05;1.60;;;;;;;;;;5033271;28;20376;-39
2021/06/25 05:14:57;;;;;;;2.58;1.95;;;;;;;;;;5028854;28;20045;-39
2021/06/25 05:17:27;;;;;;;2.08;1.60;;;;;;;;;;5030829;28;20060;-39
2021/06/25 05:19:54;;;;;;;2.67;1.58;;;;;;;;;;5019957;28;20501;-40
2021/06/25 05:22:21;;;;;;;4.97;1.88;;;;;;;;;;5023670;28;20046;-39
2021/06/25 05:24:48;;;;;;;3.22;1.75;;;;;;;;;;5018331;28;20045;-41
2021/06/25 05:27:15;;;;;;;3.53;1.80;;;;;;;;;;5040616;28;20074;-39
2021/06/25 05:29:41;;;;;;;2.30;1.70;;;;;;;;;;5023658;28;20547;-39
2021/06/25 05:32:08;;;;;;;2.60;1.58;;;;;;;;;;5030080;28;20135;-45
2021/06/25 05:34:35;;;;;;;3.47;1.70;;;;;;;;;;5022880;28;20109;-40
2021/06/25 05:37:02;;;;;;;3.85;1.70;;;;;;;;;;5022192;28;20443;-39
2021/06/25 05:39:28;;;;;;;1.83;1.38;;;;;;;;;;5031496;28;20132;-46
2021/06/25 05:41:55;;;;;;;2.67;1.58;;;;;;;;;;5021504;28;20068;-40
2021/06/25 05:44:22;;;;;;;2.30;1.30;;;;;;;;;;5024311;28;20053;-39
2021/06/25 05:46:49;;;;;;;2.08;1.60;;;;;;;;;;5034502;28;20045;-40
2021/06/25 05:49:15;;;;;;;2.80;1.77;;;;;;;;;;5031323;28;20068;-40
2021/06/25 05:51:42;;;;;;;2.17;1.55;;;;;;;;;;5043050;28;20164;-41
2021/06/25 05:54:12;;;;;;;1.88;1.48;;;;;;;;;;5029989;28;20062;-40
2021/06/25 05:56:38;;;;;;;3.15;1.52;;;;;;;;;;5024134;28;20088;-40
2021/06/25 05:59:05;;;;;;;1.70;1.38;;;;;;;;;;5028703;28;20495;-41
2021/06/25 06:01:32;;;;;;;2.58;1.55;;;;;;;;;;5021963;28;20107;-40
2021/06/25 06:03:59;;;;;;;2.50;1.70;;;;;;;;;;5032200;28;20053;-43
2021/06/25 06:06:26;;;;;;;2.25;1.63;;;;;;;;;;5031175;28;20041;-40
2021/06/25 06:08:53;;;;;;;4.68;1.85;;;;;;;;;;5018520;28;20052;-40
2021/06/25 06:11:20;;;;;;;2.35;1.70;;;;;;;;;;5030329;28;20041;-41
2021/06/25 06:13:46;;;;;;;2.15;1.60;;;;;;;;;;5032282;28;20049;-40
2021/06/25 06:16:14;;;;;;;2.72;1.63;;;;;;;;;;5027645;28;20049;-41
2021/06/25 06:18:48;;;;;;;2.60;1.63;;;;;;;;;;5017527;28;20059;-40
2021/06/25 06:21:16;;;;;;;2.70;1.80;;;;;;;;;;5030301;28;20049;-41
2021/06/25 06:34:33;;;;;;;3.33;2.22;;;;;;;;;;5028232;28;20571;-40
2021/06/25 06:37:00;;;;;;;4.18;2.33;;;;;;;;;;5032850;28;20048;-40
2021/06/25 06:39:28;;;;;;;2.95;2.17;;;;;;;;;;5024949;28;20044;-40
2021/06/25 06:41:56;;;;;;;6.38;3.33;;;;;;;;;;5033545;28;20096;-41
2021/06/25 06:44:23;;;;;;;4.22;2.60;;;;;;;;;;5030990;28;20112;-40
2021/06/25 06:46:49;;;;;;;3.25;2.45;;;;;;;;;;5029131;28;20041;-41
2021/06/25 06:49:16;;;;;;;3.80;2.65;;;;;;;;;;5027844;28;20076;-40
2021/06/25 06:51:43;;;;;;;3.70;2.78;;;;;;;;;;5027826;28;20050;-40
2021/06/25 06:54:10;;;;;;;5.30;2.67;;;;;;;;;;5029981;28;20076;-38
2021/06/25 06:56:37;;;;;;;4.20;3.00;;;;;;;;;;5028133;28;20133;-41
2021/06/25 06:59:04;;;;;;;3.67;2.78;;;;;;;;;;5023384;28;20093;-42
2021/06/25 07:01:31;;;;;;;3.72;2.80;;;;;;;;;;5026105;28;20057;-41
2021/06/25 07:04:18;;;;;;;3.95;2.95;;;;;;;;;;5024961;28;20037;-39
2021/06/25 07:06:44;;;;;;;3.80;2.55;;;;;;;;;;5025479;28;20054;-38
2021/06/25 07:09:11;;;;;;;6.53;2.85;;;;;;;;;;5020047;28;20057;-40
2021/06/25 07:11:38;;;;;;;3.80;2.70;;;;;;;;;;5024948;28;20057;-41
2021/06/25 07:14:05;;;;;;;4.65;2.92;;;;;;;;;;5028524;28;20080;-40
2021/06/25 07:16:32;;;;;;;4.60;2.85;;;;;;;;;;5022828;28;20061;-42
2021/06/25 07:18:59;;;;;;;4.43;2.95;;;;;;;;;;5025090;28;20049;-38
2021/06/25 07:21:25;;;;;;;4.55;3.28;;;;;;;;;;5024087;28;20140;-38
2021/06/25 07:23:52;;;;;;;4.18;2.97;;;;;;;;;;5023098;28;20402;-42
2021/06/25 07:26:20;;;;;;;4.78;3.00;;;;;;;;;;5031128;28;20091;-39
2021/06/25 07:28:47;;;;;;;4.25;3.00;;;;;;;;;;5031055;28;20045;-41
2021/06/25 07:31:14;;;;;;;4.95;2.97;;;;;;;;;;5023400;28;20139;-39
2021/06/25 07:33:41;;;;;;;3.90;2.78;;;;;;;;;;5019180;28;20053;-40
2021/06/25 07:36:08;;;;;;;6.80;2.83;;;;;;;;;;5028680;28;20205;-41
2021/06/25 07:38:34;;;;;;;4.78;2.85;;;;;;;;;;5020437;28;20595;-47
2021/06/25 07:41:01;;;;;;;3.53;2.60;;;;;;;;;;5018940;28;20045;-42
2021/06/25 07:43:28;;;;;;;4.68;2.85;;;;;;;;;;5028378;28;20452;-38
2021/06/25 07:45:55;;;;;;;3.28;2.40;;;;;;;;;;5031550;28;20482;-37
2021/06/25 07:48:22;;;;;;;3.38;2.33;;;;;;;;;;5029623;28;20180;-41
2021/06/25 07:50:48;;;;;;;3.95;2.47;;;;;;;;;;5028256;28;20084;-39
2021/06/25 07:53:15;;;;;;;3.78;2.28;;;;;;;;;;5018962;28;20107;-41
2021/06/25 07:55:45;;;;;;;4.25;2.55;;;;;;;;;;5027949;28;20132;-40
2021/06/25 07:58:12;;;;;;;4.18;2.60;;;;;;;;;;5028686;28;20085;-39
2021/06/25 08:00:39;;;;;;;2.92;2.40;;;;;;;;;;5027071;28;20045;-40
2021/06/25 08:03:06;;;;;;;3.50;2.75;;;;;;;;;;5018498;28;20121;-43
2021/06/25 08:05:33;;;;;;;4.72;2.22;;;;;;;;;;5033674;28;20100;-39
2021/06/25 08:08:00;;;;;;;3.92;2.63;;;;;;;;;;5031645;28;20076;-43
2021/06/25 08:10:28;;;;;;;3.40;2.42;;;;;;;;;;5031246;28;20053;-43
2021/06/25 08:12:55;;;;;;;2.97;2.00;;;;;;;;;;5031559;28;20128;-39
2021/06/25 08:15:22;;;;;;;3.33;2.38;;;;;;;;;;5034333;28;20062;-41
2021/06/25 08:17:49;;;;;;;3.05;1.77;;;;;;;;;;5031462;28;20753;-39
2021/06/25 08:20:17;;;;;;;3.75;2.33;;;;;;;;;;5026072;28;20102;-40
2021/06/25 08:22:44;;;;;;;3.75;2.13;;;;;;;;;;5027930;28;20129;-39
2021/06/25 08:25:11;;;;;;;3.13;2.42;;;;;;;;;;5033565;28;20133;-40
2021/06/25 08:27:37;;;;;;;3.20;2.40;;;;;;;;;;5032486;28;20050;-39
2021/06/25 08:30:05;;;;;;;3.25;2.30;;;;;;;;;;5026022;28;20046;-38
2021/06/25 08:32:32;;;;;;;3.50;2.38;;;;;;;;;;5023603;28;20064;-39
2021/06/25 08:34:59;;;;;;;5.07;2.85;;;;;;;;;;5030215;28;20070;-39
2021/06/25 08:37:25;;;;;;;3.53;2.63;;;;;;;;;;5029508;28;20080;-41
2021/06/25 08:39:54;;;;;;;3.33;2.20;;;;;;;;;;5030725;28;20115;-39
2021/06/25 08:42:21;;;;;;;2.78;2.40;;;;;;;;;;5032480;28;20056;-39
2021/06/25 08:44:48;;;;;;;3.25;2.60;;;;;;;;;;5030694;28;20053;-40
2021/06/25 08:47:14;;;;;;;2.50;2.10;;;;;;;;;;5027799;28;20054;-40
2021/06/25 08:49:43;;;;;;;3.08;2.05;;;;;;;;;;5033141;28;20549;-38
2021/06/25 08:52:11;;;;;;;2.15;1.52;;;;;;;;;;5027337;28;20057;-40
2021/06/25 08:54:38;;;;;;;1.70;1.45;;;;;;;;;;5033992;28;20053;-39
2021/06/25 08:57:07;;;;;;;2.08;1.45;;;;;;;;;;5031344;28;20578;-40
2021/06/25 08:59:34;;;;;;;4.15;1.52;;;;;;;;;;5029594;28;20103;-42
2021/06/25 09:02:03;;;;;;;2.47;1.40;;;;;;;;;;5023624;28;20092;-39
2021/06/25 09:04:34;;;;;;;1.23;1.13;;;;;;;;;;5032563;28;20050;-41
2021/06/25 09:07:02;;;;;;;1.73;1.30;;;;;;;;;;5032304;28;20076;-42
2021/06/25 09:09:45;;;;;;;4.05;2.20;;;;;;;;;;5028413;28;20573;-44
2021/06/25 09:12:14;;;;;;;2.50;1.13;;;;;;;;;;5048070;28;20076;-41
2021/06/25 09:14:56;;;;;;;2.10;1.40;;;;;;;;;;5032589;28;20116;-39
2021/06/25 09:17:23;;;;;;;1.35;0.90;;;;;;;;;;5028055;28;20041;-42
2021/06/25 09:19:50;;;;;;;1.30;1.00;;;;;;;;;;5032703;28;20088;-39
2021/06/25 09:22:17;;;;;;;1.55;0.88;;;;;;;;;;5031532;28;20411;-40
2021/06/25 09:24:57;;;;;;;1.73;0.80;;;;;;;;;;5032539;28;20107;-39
2021/06/25 09:27:25;;;;;;;2.03;0.93;;;;;;;;;;5033045;28;20053;-41
2021/06/25 09:29:52;;;;;;;1.27;1.08;;;;;;;;;;5025834;28;20045;-39
2021/06/25 09:32:19;;;;;;;1.65;1.17;;;;;;;;;;5021714;28;20582;-38
2021/06/25 09:34:52;;;;;;;1.25;1.00;;;;;;;;;;5032385;28;20045;-40
2021/06/25 09:37:19;;;;;;;1.15;1.00;;;;;;;;;;5026616;28;20110;-37
2021/06/25 09:40:00;;;;;;;1.15;1.05;;;;;;;;;;5016616;28;20112;-37
2021/06/25 09:42:27;;;;;;;2.13;1.30;;;;;;;;;;5031827;28;20053;-37
2021/06/25 09:44:58;;;;;;;2.95;1.27;;;;;;;;;;5033015;28;20053;-44
2021/06/25 09:47:28;;;;;;;2.35;1.08;;;;;;;;;;5024185;28;20516;-37
2021/06/25 09:50:05;;;;;;;1.35;1.25;;;;;;;;;;5012734;28;20080;-37
2021/06/25 09:52:47;;;;;;;1.35;1.20;;;;;;;;;;5012799;28;20054;-39
2021/06/25 09:55:15;;;;;;;1.33;1.13;;;;;;;;;;5024360;28;20499;-39
2021/06/25 10:01:48;;;;;;;1.58;1.10;;;;;;;;;;5018665;28;20128;-38
2021/06/25 10:03:52;;;;;;;1.42;1.30;;;;;;;;;;5020700;28;20104;-38
2021/06/25 10:06:21;;;;;;;1.27;1.10;;;;;;;;;;5033419;28;20057;-38
2021/06/25 10:08:49;;;;;;;2.13;1.20;;;;;;;;;;5032148;28;20052;-38
2021/06/25 10:11:18;;;;;;;1.42;1.30;;;;;;;;;;5032559;28;20053;-37
2021/06/25 10:13:51;;;;;;;1.73;1.35;;;;;;;;;;5024247;28;20045;-39
2021/06/25 10:16:22;;;;;;;2.95;1.17;;;;;;;;;;5030871;28;20553;-38
2021/06/25 10:18:51;;;;;;;1.70;1.20;;;;;;;;;;5039775;28;20529;-40
2021/06/25 10:21:20;;;;;;;2.58;1.63;;;;;;;;;;5025620;28;20052;-40
2021/06/25 10:23:55;;;;;;;1.98;1.42;;;;;;;;;;5031412;28;20124;-36
2021/06/25 10:26:23;;;;;;;1.90;1.50;;;;;;;;;;5031186;28;20049;-39
2021/06/25 10:28:52;;;;;;;3.17;1.33;;;;;;;;;;5031426;28;20140;-39
2021/06/25 10:31:22;;;;;;;1.90;1.40;;;;;;;;;;5037656;28;20562;-41
2021/06/25 10:33:52;;;;;;;2.83;1.33;;;;;;;;;;5029117;28;20053;-39
2021/06/25 10:36:22;;;;;;;2.90;1.10;;;;;;;;;;5044270;28;20053;-38
2021/06/25 10:38:53;;;;;;;2.63;1.25;;;;;;;;;;5029707;28;20419;-40
2021/06/25 10:41:22;;;;;;;1.67;1.20;;;;;;;;;;5032009;28;20073;-41
2021/06/25 10:43:52;;;;;;;1.42;1.23;;;;;;;;;;5029715;28;20045;-37
2021/06/25 10:46:34;;;;;;;2.38;1.02;;;;;;;;;;5030774;28;20057;-42
2021/06/25 10:49:09;;;;;;;1.73;1.10;;;;;;;;;;5025730;28;20049;-41
2021/06/25 10:51:37;;;;;;;1.35;1.00;;;;;;;;;;5029494;28;20046;-38
2021/06/25 10:54:09;;;;;;;2.35;1.33;;;;;;;;;;5041026;28;20046;-42
2021/06/25 10:56:59;;;;;;;2.17;1.20;;;;;;;;;;5030319;28;20115;-43
2021/06/25 10:59:29;;;;;;;2.63;1.50;;;;;;;;;;5027055;28;20111;-42
2021/06/25 11:01:57;;;;;;;2.55;1.40;;;;;;;;;;5017976;28;20065;-43
2021/06/25 11:04:30;;;;;;;4.10;1.38;;;;;;;;;;5029965;28;20050;-43
2021/06/25 11:06:57;;;;;;;2.55;1.30;;;;;;;;;;5029950;28;20072;-43
2021/06/25 11:09:25;;;;;;;1.58;1.30;;;;;;;;;;5034874;28;20486;-43
2021/06/25 11:12:10;;;;;;;2.03;1.40;;;;;;;;;;5032449;28;20057;-39
2021/06/25 11:14:37;;;;;;;1.38;1.13;;;;;;;;;;5030956;28;20199;-43
2021/06/25 11:17:04;;;;;;;1.10;1.00;;;;;;;;;;5029306;28;20095;-39
2021/06/25 11:19:38;;;;;;;4.63;1.83;;;;;;;;;;5020491;28;20521;-43
2021/06/25 11:22:24;;;;;;;1.42;1.30;;;;;;;;;;5023297;28;20038;-41
2021/06/25 11:24:55;;;;;;;4.78;1.45;;;;;;;;;;5044899;28;20384;-43
2021/06/25 11:27:22;;;;;;;3.58;1.10;;;;;;;;;;5037750;28;20111;-42
2021/06/25 11:29:49;;;;;;;3.03;1.60;;;;;;;;;;5030597;28;20034;-41
2021/06/25 11:32:42;;;;;;;2.10;1.33;;;;;;;;;;5027049;28;20049;-41
2021/06/25 11:35:41;;;;;;;1.63;1.27;;;;;;;;;;5012229;28;20108;-42
2021/06/25 11:38:08;;;;;;;7.05;1.67;;;;;;;;;;5012185;28;20064;-41
2021/06/25 11:40:48;;;;;;;2.85;1.52;;;;;;;;;;5028502;28;20046;-39
2021/06/25 11:43:20;;;;;;;1.98;1.27;;;;;;;;;;5029042;28;20053;-41
2021/06/25 11:45:50;;;;;;;2.38;1.27;;;;;;;;;;5045449;28;20045;-41
2021/06/25 11:48:21;;;;;;;1.40;1.23;;;;;;;;;;5035304;28;20041;-40
2021/06/25 11:50:56;;;;;;;1.30;1.20;;;;;;;;;;5020674;28;20149;-41
2021/06/25 11:53:24;;;;;;;1.50;1.30;;;;;;;;;;5027108;28;20080;-41
2021/06/25 11:55:54;;;;;;;1.85;1.20;;;;;;;;;;5035179;28;20110;-41
2021/06/25 11:58:21;;;;;;;3.40;1.35;;;;;;;;;;5034619;28;20056;-43
2021/06/25 12:00:59;;;;;;;1.20;1.10;;;;;;;;;;5095777;22;20102;-37
2021/06/25 12:03:26;;;;;;;2.13;1.00;;;;;;;;;;5077869;28;20120;-37
2021/06/25 12:06:03;;;;;;;1.00;0.82;;;;;;;;;;5078280;28;20136;-37
2021/06/25 12:08:29;;;;;;;0.75;0.65;;;;;;;;;;5078269;28;20101;-36
2021/06/25 12:10:56;;;;;;;0.60;0.60;;;;;;;;;;5076231;28;20064;-37
2021/06/25 12:13:23;;;;;;;0.70;0.70;;;;;;;;;;5072888;28;20432;-37
2021/06/25 12:15:50;;;;;;;0.75;0.73;;;;;;;;;;5071253;28;20053;-37
2021/06/25 12:18:18;;;;;;;1.40;0.70;;;;;;;;;;5037881;28;20049;-37
2021/06/25 12:20:45;;;;;;;0.77;0.73;;;;;;;;;;5054837;28;20048;-38
2021/06/25 12:23:12;;;;;;;0.90;0.80;;;;;;;;;;5065002;28;20098;-37
2021/06/25 12:25:49;;;;;;;0.93;0.77;;;;;;;;;;5073232;28;20481;-36
2021/06/25 12:28:19;;;;;;;0.77;0.75;;;;;;;;;;5072596;28;20064;-37
2021/06/25 12:30:50;;;;;;;2.75;0.70;;;;;;;;;;5069727;28;20051;-37
2021/06/25 12:33:21;;;;;;;0.80;0.80;;;;;;;;;;5044995;28;20064;-37
2021/06/25 12:35:49;;;;;;;3.25;1.10;;;;;;;;;;5073076;28;20079;-37
2021/06/25 12:38:17;;;;;;;1.52;1.13;;;;;;;;;;5055353;28;20056;-39
2021/06/25 12:40:44;;;;;;;1.98;1.00;;;;;;;;;;5060723;28;20077;-39
2021/06/25 12:43:12;;;;;;;1.48;0.90;;;;;;;;;;5059990;28;20482;-39
2021/06/25 12:45:49;;;;;;;1.50;1.10;;;;;;;;;;5072577;28;20052;-39
2021/06/25 12:48:23;;;;;;;1.90;1.30;;;;;;;;;;5060594;28;20044;-39
2021/06/25 12:50:59;;;;;;;3.80;1.17;;;;;;;;;;5071597;28;20060;-39
2021/06/25 12:53:30;;;;;;;0.95;0.75;;;;;;;;;;5065454;28;20064;-39
2021/06/25 12:55:58;;;;;;;2.88;0.80;;;;;;;;;;5064317;28;20049;-39
2021/06/25 12:58:27;;;;;;;1.85;0.80;;;;;;;;;;5056888;28;20075;-38
2021/06/25 13:00:57;;;;;;;0.68;0.68;;;;;;;;;;5071911;28;20110;-38
2021/06/25 13:03:25;;;;;;;1.48;0.90;;;;;;;;;;5073006;28;20044;-38
2021/06/25 13:05:52;;;;;;;1.65;0.90;;;;;;;;;;5073131;28;20049;-38
2021/06/25 13:08:29;;;;;;;2.10;0.70;;;;;;;;;;5055396;28;20057;-39
2021/06/25 13:11:16;;;;;;;1.25;0.60;;;;;;;;;;5053012;28;20147;-38
2021/06/25 13:13:44;;;;;;;1.67;0.70;;;;;;;;;;5053420;28;20688;-38
2021/06/25 13:16:15;;;;;;;1.17;0.80;;;;;;;;;;5053025;28;20075;-39
2021/06/25 13:18:45;;;;;;;1.75;0.90;;;;;;;;;;5053028;28;20131;-39
2021/06/25 13:21:21;;;;;;;0.80;0.80;;;;;;;;;;5052810;28;20049;-38
2021/06/25 13:23:51;;;;;;;1.00;0.90;;;;;;;;;;5053355;28;20080;-39
2021/06/25 13:26:25;;;;;;;2.97;1.13;;;;;;;;;;5035064;28;20564;-38
2021/06/25 13:28:59;;;;;;;1.10;1.00;;;;;;;;;;5051818;28;20045;-39
2021/06/25 13:31:26;;;;;;;1.00;0.82;;;;;;;;;;5034704;28;20132;-39
2021/06/25 13:33:53;;;;;;;1.45;1.00;;;;;;;;;;5052630;28;20060;-39
2021/06/25 13:36:20;;;;;;;0.75;0.75;;;;;;;;;;5052694;28;20063;-39
2021/06/25 13:38:47;;;;;;;0.93;0.88;;;;;;;;;;5051186;28;20049;-40
2021/06/25 13:41:20;;;;;;;0.95;0.75;;;;;;;;;;5051509;28;20127;-40
2021/06/25 13:43:51;;;;;;;0.95;0.70;;;;;;;;;;5052403;28;20064;-39
2021/06/25 13:46:19;;;;;;;0.88;0.80;;;;;;;;;;5052088;28;20053;-39
2021/06/25 13:48:47;;;;;;;1.00;0.88;;;;;;;;;;5052042;28;20072;-40
2021/06/25 13:51:17;;;;;;;0.60;0.60;;;;;;;;;;5051888;28;20060;-40
2021/06/25 13:53:44;;;;;;;0.90;0.80;;;;;;;;;;5072126;28;20056;-38
2021/06/25 13:56:10;;;;;;;1.30;0.88;;;;;;;;;;5072049;28;20163;-41
2021/06/25 13:58:54;;;;;;;1.98;0.90;;;;;;;;;;5071180;28;20082;-39
2021/06/25 14:01:23;;;;;;;2.08;0.90;;;;;;;;;;5052592;28;20132;-39
2021/06/25 14:03:55;;;;;;;1.10;1.00;;;;;;;;;;5051992;28;20476;-39
2021/06/25 14:06:22;;;;;;;1.50;1.15;;;;;;;;;;5051983;28;20045;-39
2021/06/25 14:08:49;;;;;;;1.98;1.40;;;;;;;;;;5034098;28;20049;-40
2021/06/25 14:11:20;;;;;;;2.45;1.55;;;;;;;;;;5034485;28;20056;-38
2021/06/25 14:13:48;;;;;;;2.10;1.58;;;;;;;;;;5052830;28;20126;-39
2021/06/25 14:16:18;;;;;;;1.50;1.40;;;;;;;;;;5052026;28;20059;-39
2021/06/25 14:18:47;;;;;;;2.08;1.35;;;;;;;;;;5050706;28;20059;-38
2021/06/25 14:21:15;;;;;;;1.30;1.00;;;;;;;;;;5051349;28;20090;-39
2021/06/25 14:23:42;;;;;;;1.08;0.80;;;;;;;;;;5052333;28;20049;-38
2021/06/25 14:26:09;;;;;;;1.10;0.90;;;;;;;;;;5051727;28;20128;-40
2021/06/25 14:28:36;;;;;;;2.35;1.15;;;;;;;;;;5052216;28;20072;-38
2021/06/25 14:31:03;;;;;;;3.13;0.88;;;;;;;;;;5051728;28;20510;-39
2021/06/25 14:33:30;;;;;;;1.38;0.80;;;;;;;;;;5051757;28;20053;-40
2021/06/25 14:35:56;;;;;;;1.00;0.90;;;;;;;;;;5051539;28;20106;-39
2021/06/25 14:38:23;;;;;;;2.58;0.90;;;;;;;;;;5051499;28;20387;-40
2021/06/25 14:40:51;;;;;;;1.55;1.08;;;;;;;;;;5051356;28;20470;-37
2021/06/25 14:43:18;;;;;;;1.00;0.90;;;;;;;;;;5051769;28;20045;-40
2021/06/25 14:45:45;;;;;;;1.23;0.68;;;;;;;;;;5051601;28;20410;-38
2021/06/25 14:48:12;;;;;;;1.05;0.85;;;;;;;;;;5051574;28;20045;-38
2021/06/25 14:50:39;;;;;;;0.88;0.75;;;;;;;;;;5050858;28;20478;-38
2021/06/25 14:53:06;;;;;;;1.33;1.02;;;;;;;;;;5051192;28;20106;-39
2021/06/25 14:55:33;;;;;;;0.77;0.65;;;;;;;;;;5071795;28;20048;-38
2021/06/25 14:58:00;;;;;;;0.77;0.70;;;;;;;;;;5071508;28;20125;-38
2021/06/25 15:00:27;;;;;;;1.38;0.90;;;;;;;;;;5060030;28;20057;-39
2021/06/25 15:02:54;;;;;;;1.08;0.85;;;;;;;;;;5051312;28;20049;-39
2021/06/25 15:05:21;;;;;;;1.65;0.70;;;;;;;;;;5051271;28;20480;-40